PWSweather.com
Personal Weather Stations
Station Observations
WATERF01
WaterfordIE

WaterfordIE

Lat: 52.2412507, Lon: -7.1414691

Elevation: 65

Station Type: Davis Vantage Vue

Latest ConditionsUpdated 8:50:01 PM GMT Wednesday, Apr 24, 2019
Currently Today's Max Today's Min Today's Average
Temperature 50.3°F10.2°C 54.1°F12.3°C 50.3°F10.2°C 52.8°F11.6°C
Dew Point 46.3°F7.9°C 50.9°F10.5°C 45.7°F7.6°C 49.1°F9.5°C
Winds 5.8 mph S9.3 kmh S 12.7 mph -20.4 kmh - - 7.2 mph 11.6 kmh
Wind Gusts 8.1 mph13.0 kmh 19.6 mph31.5 kmh - -
Humidity 86% 89% 84% 87%
Pressure 29.24 in990.2 mb 29.30 in992.2 mb 29.18 in988.1 mb -
Precipitation - 0.35 in8.9 mm - -
Hour Temp Dew Point Humidity Winds Wind Gusts Pressure Precip Precip Rate Daily Precip Total
08:50 PM 50.3°F10.2°C 46.3°F7.9°C 86% 5.8 mph S9.3 kmh S 8.1 mph13.0 kmh 29.24 in990.2 mb - 0.00 in0.0 mm 0.35 in8.9 mm
08:40 PM 50.3°F10.2°C 45.7°F7.6°C 84% 4.6 mph SW7.4 kmh SW 6.9 mph11.1 kmh 29.24 in990.2 mb - 0.00 in0.0 mm 0.35 in8.9 mm
08:30 PM 50.7°F10.4°C 46.4°F8.0°C 85% 8.1 mph SSE13.0 kmh SSE 12.7 mph20.4 kmh 29.24 in990.2 mb - 0.00 in0.0 mm 0.35 in8.9 mm
08:20 PM 50.6°F10.3°C 46.6°F8.1°C 86% 4.6 mph SSE7.4 kmh SSE 6.9 mph11.1 kmh 29.24 in990.2 mb - 0.00 in0.0 mm 0.35 in8.9 mm
08:10 PM 50.6°F10.3°C 46.5°F8.1°C 86% 5.8 mph SSE9.3 kmh SSE 8.1 mph13.0 kmh 29.24 in990.2 mb - 0.00 in0.0 mm 0.35 in8.9 mm
08:00 PM 50.6°F10.3°C 46.6°F8.1°C 86% 5.8 mph S9.3 kmh S 11.5 mph18.5 kmh 29.23 in989.8 mb - 0.00 in0.0 mm 0.35 in8.9 mm
07:50 PM 50.7°F10.4°C 46.4°F8.0°C 85% 6.9 mph S11.1 kmh S 8.1 mph13.0 kmh 29.23 in989.8 mb - 0.00 in0.0 mm 0.35 in8.9 mm
07:40 PM 50.7°F10.4°C 46.4°F8.0°C 85% 5.8 mph S9.3 kmh S 11.5 mph18.5 kmh 29.23 in989.8 mb - 0.00 in0.0 mm 0.35 in8.9 mm
07:30 PM 50.8°F10.4°C 46.5°F8.1°C 85% 5.8 mph SSW9.3 kmh SSW 9.2 mph14.8 kmh 29.23 in989.8 mb - 0.00 in0.0 mm 0.35 in8.9 mm
07:20 PM 51.0°F10.6°C 46.6°F8.1°C 85% 5.8 mph SW9.3 kmh SW 9.2 mph14.8 kmh 29.23 in989.8 mb - 0.00 in0.0 mm 0.35 in8.9 mm
07:10 PM 51.0°F10.6°C 46.6°F8.1°C 85% 8.1 mph SSW13.0 kmh SSW 11.5 mph18.5 kmh 29.22 in989.5 mb - 0.00 in0.0 mm 0.35 in8.9 mm
07:00 PM 51.1°F10.6°C 46.7°F8.2°C 85% 5.8 mph SSW9.3 kmh SSW 8.1 mph13.0 kmh 29.22 in989.5 mb - 0.00 in0.0 mm 0.35 in8.9 mm
06:50 PM 51.3°F10.7°C 46.9°F8.3°C 85% 6.9 mph S11.1 kmh S 11.5 mph18.5 kmh 29.22 in989.5 mb - 0.00 in0.0 mm 0.35 in8.9 mm
06:40 PM 51.4°F10.8°C 47.4°F8.6°C 86% 5.8 mph SSW9.3 kmh SSW 11.5 mph18.5 kmh 29.22 in989.5 mb - 0.00 in0.0 mm 0.35 in8.9 mm
06:30 PM 51.6°F10.9°C 47.5°F8.6°C 86% 8.1 mph S13.0 kmh S 12.7 mph20.4 kmh 29.21 in989.2 mb - 0.00 in0.0 mm 0.35 in8.9 mm
06:20 PM 51.8°F11.0°C 47.8°F8.8°C 86% 8.1 mph SW13.0 kmh SW 11.5 mph18.5 kmh 29.21 in989.2 mb - 0.00 in0.0 mm 0.35 in8.9 mm
06:10 PM 51.9°F11.1°C 48.2°F9.0°C 87% 6.9 mph SW11.1 kmh SW 11.5 mph18.5 kmh 29.21 in989.2 mb - 0.00 in0.0 mm 0.35 in8.9 mm
06:00 PM 51.9°F11.1°C 48.2°F9.0°C 87% 5.8 mph SSW9.3 kmh SSW 9.2 mph14.8 kmh 29.20 in988.8 mb - 0.00 in0.0 mm 0.35 in8.9 mm
05:50 PM 51.9°F11.1°C 48.2°F9.0°C 87% 9.2 mph SW14.8 kmh SW 12.7 mph20.4 kmh 29.20 in988.8 mb - 0.00 in0.0 mm 0.35 in8.9 mm
05:40 PM 52.0°F11.1°C 48.3°F9.1°C 87% 6.9 mph SW11.1 kmh SW 11.5 mph18.5 kmh 29.20 in988.8 mb - 0.00 in0.0 mm 0.35 in8.9 mm
05:30 PM 52.3°F11.3°C 48.5°F9.2°C 87% 8.1 mph SW13.0 kmh SW 12.7 mph20.4 kmh 29.20 in988.8 mb - 0.00 in0.0 mm 0.35 in8.9 mm
05:20 PM 52.4°F11.3°C 48.6°F9.2°C 87% 9.2 mph SW14.8 kmh SW 12.7 mph20.4 kmh 29.20 in988.8 mb - 0.00 in0.0 mm 0.35 in8.9 mm
05:10 PM 52.5°F11.4°C 49.0°F9.4°C 88% 5.8 mph S9.3 kmh S 12.7 mph20.4 kmh 29.19 in988.5 mb - 0.00 in0.0 mm 0.35 in8.9 mm
05:00 PM 52.5°F11.4°C 49.0°F9.4°C 88% 6.9 mph SSW11.1 kmh SSW 8.1 mph13.0 kmh 29.19 in988.5 mb - 0.00 in0.0 mm 0.35 in8.9 mm
04:50 PM 52.6°F11.4°C 49.1°F9.5°C 88% 9.2 mph S14.8 kmh S 12.7 mph20.4 kmh 29.19 in988.5 mb - 0.00 in0.0 mm 0.35 in8.9 mm
04:40 PM 52.6°F11.4°C 49.2°F9.6°C 88% 8.1 mph S13.0 kmh S 12.7 mph20.4 kmh 29.18 in988.1 mb - 0.00 in0.0 mm 0.35 in8.9 mm
04:30 PM 52.7°F11.5°C 49.2°F9.6°C 88% 8.1 mph S13.0 kmh S 11.5 mph18.5 kmh 29.18 in988.1 mb - 0.00 in0.0 mm 0.35 in8.9 mm
04:20 PM 52.8°F11.6°C 49.3°F9.6°C 88% 8.1 mph S13.0 kmh S 12.7 mph20.4 kmh 29.18 in988.1 mb - 0.00 in0.0 mm 0.35 in8.9 mm
04:10 PM 53.0°F11.7°C 49.5°F9.7°C 88% 8.1 mph S13.0 kmh S 11.5 mph18.5 kmh 29.18 in988.1 mb - 0.01 in0.3 mm 0.35 in8.9 mm
04:00 PM 53.0°F11.7°C 49.6°F9.8°C 88% 9.2 mph S14.8 kmh S 15.0 mph24.1 kmh 29.18 in988.1 mb - 0.01 in0.3 mm 0.35 in8.9 mm
03:50 PM 53.0°F11.7°C 49.5°F9.7°C 88% 8.1 mph S13.0 kmh S 9.2 mph14.8 kmh 29.18 in988.1 mb - 0.02 in0.5 mm 0.35 in8.9 mm
03:40 PM 52.9°F11.6°C 49.5°F9.7°C 88% 5.8 mph SSE9.3 kmh SSE 8.1 mph13.0 kmh 29.18 in988.1 mb - 0.03 in0.8 mm 0.35 in8.9 mm
03:30 PM 52.5°F11.4°C 49.0°F9.4°C 88% 8.1 mph SE13.0 kmh SE 11.5 mph18.5 kmh 29.18 in988.1 mb - 0.05 in1.3 mm 0.35 in8.9 mm
03:20 PM 52.4°F11.3°C 48.9°F9.4°C 88% 6.9 mph SE11.1 kmh SE 9.2 mph14.8 kmh 29.18 in988.1 mb - 0.06 in1.5 mm 0.35 in8.9 mm
03:10 PM 52.4°F11.3°C 48.9°F9.4°C 88% 8.1 mph SE13.0 kmh SE 11.5 mph18.5 kmh 29.18 in988.1 mb - 0.06 in1.5 mm 0.34 in8.6 mm
03:00 PM 52.3°F11.3°C 48.9°F9.4°C 88% 6.9 mph SSE11.1 kmh SSE 11.5 mph18.5 kmh 29.18 in988.1 mb - 0.07 in1.8 mm 0.34 in8.6 mm
02:50 PM 52.4°F11.3°C 48.9°F9.4°C 88% 5.8 mph SSE9.3 kmh SSE 11.5 mph18.5 kmh 29.18 in988.1 mb - 0.07 in1.8 mm 0.33 in8.4 mm
02:40 PM 52.3°F11.3°C 48.9°F9.4°C 88% 8.1 mph S13.0 kmh S 12.7 mph20.4 kmh 29.18 in988.1 mb - 0.06 in1.5 mm 0.32 in8.1 mm
02:30 PM 52.3°F11.3°C 48.9°F9.4°C 88% 9.2 mph S14.8 kmh S 13.8 mph22.2 kmh 29.19 in988.5 mb - 0.04 in1.0 mm 0.30 in7.6 mm
02:20 PM 52.5°F11.4°C 49.0°F9.4°C 88% 9.2 mph S14.8 kmh S 13.8 mph22.2 kmh 29.18 in988.1 mb - 0.03 in0.8 mm 0.29 in7.4 mm
02:10 PM 52.7°F11.5°C 49.3°F9.6°C 88% 11.5 mph S18.5 kmh S 19.6 mph31.5 kmh 29.18 in988.1 mb - 0.03 in0.8 mm 0.29 in7.4 mm
02:00 PM 52.9°F11.6°C 49.1°F9.5°C 87% 9.2 mph SSE14.8 kmh SSE 12.7 mph20.4 kmh 29.18 in988.1 mb - 0.01 in0.3 mm 0.27 in6.9 mm
01:50 PM 53.0°F11.7°C 49.2°F9.6°C 87% 10.4 mph SE16.7 kmh SE 16.1 mph25.9 kmh 29.18 in988.1 mb - 0.01 in0.3 mm 0.27 in6.9 mm
01:40 PM 53.0°F11.7°C 49.2°F9.6°C 87% 8.1 mph S13.0 kmh S 13.8 mph22.2 kmh 29.18 in988.1 mb - 0.01 in0.3 mm 0.26 in6.6 mm
01:30 PM 53.0°F11.7°C 49.2°F9.6°C 87% 6.9 mph SSE11.1 kmh SSE 13.8 mph22.2 kmh 29.18 in988.1 mb - 0.01 in0.3 mm 0.26 in6.6 mm
01:20 PM 53.1°F11.7°C 49.3°F9.6°C 87% 10.4 mph SSE16.7 kmh SSE 12.7 mph20.4 kmh 29.18 in988.1 mb - 0.01 in0.3 mm 0.26 in6.6 mm
01:10 PM 53.1°F11.7°C 49.3°F9.6°C 87% 8.1 mph SE13.0 kmh SE 12.7 mph20.4 kmh 29.18 in988.1 mb - 0.01 in0.3 mm 0.26 in6.6 mm
01:00 PM 53.1°F11.7°C 49.0°F9.4°C 86% 8.1 mph SE13.0 kmh SE 12.7 mph20.4 kmh 29.18 in988.1 mb - 0.01 in0.3 mm 0.26 in6.6 mm
12:50 PM 53.6°F12.0°C 49.8°F9.9°C 87% 8.1 mph S13.0 kmh S 12.7 mph20.4 kmh 29.18 in988.1 mb - 0.01 in0.3 mm 0.26 in6.6 mm
12:40 PM 53.4°F11.9°C 49.4°F9.7°C 86% 8.1 mph SSE13.0 kmh SSE 8.1 mph13.0 kmh 29.18 in988.1 mb - 0.00 in0.0 mm 0.25 in6.4 mm
12:30 PM 53.4°F11.9°C 49.7°F9.8°C 87% 8.1 mph SE13.0 kmh SE 12.7 mph20.4 kmh 29.18 in988.1 mb - 0.00 in0.0 mm 0.25 in6.4 mm
12:20 PM 53.4°F11.9°C 49.6°F9.8°C 87% 8.1 mph SE13.0 kmh SE 12.7 mph20.4 kmh 29.19 in988.5 mb - 0.00 in0.0 mm 0.25 in6.4 mm
12:10 PM 53.3°F11.8°C 49.5°F9.7°C 87% 9.2 mph SSE14.8 kmh SSE 13.8 mph22.2 kmh 29.19 in988.5 mb - 0.00 in0.0 mm 0.25 in6.4 mm
12:00 PM 53.1°F11.7°C 49.0°F9.4°C 86% 9.2 mph S14.8 kmh S 12.7 mph20.4 kmh 29.19 in988.5 mb - 0.00 in0.0 mm 0.25 in6.4 mm
11:50 AM 53.4°F11.9°C 49.6°F9.8°C 87% 8.1 mph SSE13.0 kmh SSE 11.5 mph18.5 kmh 29.19 in988.5 mb - 0.00 in0.0 mm 0.25 in6.4 mm
11:40 AM 53.1°F11.7°C 49.3°F9.6°C 87% 8.1 mph SSE13.0 kmh SSE 12.7 mph20.4 kmh 29.19 in988.5 mb - 0.00 in0.0 mm 0.25 in6.4 mm
11:30 AM 52.7°F11.5°C 48.9°F9.4°C 87% 6.9 mph SE11.1 kmh SE 13.8 mph22.2 kmh 29.19 in988.5 mb - 0.00 in0.0 mm 0.25 in6.4 mm
11:20 AM 52.8°F11.6°C 49.0°F9.4°C 87% 9.2 mph SE14.8 kmh SE 13.8 mph22.2 kmh 29.18 in988.1 mb - 0.01 in0.3 mm 0.25 in6.4 mm
11:10 AM 53.2°F11.8°C 49.4°F9.7°C 87% 9.2 mph SSE14.8 kmh SSE 13.8 mph22.2 kmh 29.19 in988.5 mb - 0.01 in0.3 mm 0.25 in6.4 mm
11:00 AM 53.2°F11.8°C 49.7°F9.8°C 88% 9.2 mph SSE14.8 kmh SSE 13.8 mph22.2 kmh 29.19 in988.5 mb - 0.01 in0.3 mm 0.25 in6.4 mm
10:50 AM 52.8°F11.6°C 49.3°F9.6°C 88% 8.1 mph SE13.0 kmh SE 9.2 mph14.8 kmh 29.18 in988.1 mb - 0.01 in0.3 mm 0.25 in6.4 mm
10:40 AM 52.8°F11.6°C 49.3°F9.6°C 88% 8.1 mph SE13.0 kmh SE 11.5 mph18.5 kmh 29.18 in988.1 mb - 0.01 in0.3 mm 0.25 in6.4 mm
10:30 AM 52.7°F11.5°C 49.2°F9.6°C 88% 5.8 mph SE9.3 kmh SE 11.5 mph18.5 kmh 29.18 in988.1 mb - 0.01 in0.3 mm 0.25 in6.4 mm
10:20 AM 52.6°F11.4°C 49.2°F9.6°C 88% 6.9 mph SSE11.1 kmh SSE 10.4 mph16.7 kmh 29.18 in988.1 mb - 0.00 in0.0 mm 0.24 in6.1 mm
10:10 AM 52.7°F11.5°C 49.3°F9.6°C 88% 8.1 mph SSE13.0 kmh SSE 11.5 mph18.5 kmh 29.18 in988.1 mb - 0.00 in0.0 mm 0.24 in6.1 mm
10:00 AM 52.6°F11.4°C 49.1°F9.5°C 88% 9.2 mph SE14.8 kmh SE 15.0 mph24.1 kmh 29.18 in988.1 mb - 0.00 in0.0 mm 0.24 in6.1 mm
09:50 AM 52.4°F11.3°C 48.9°F9.4°C 88% 8.1 mph SE13.0 kmh SE 11.5 mph18.5 kmh 29.18 in988.1 mb - 0.00 in0.0 mm 0.24 in6.1 mm
09:40 AM 52.1°F11.2°C 48.7°F9.3°C 88% 5.8 mph SE9.3 kmh SE 8.1 mph13.0 kmh 29.18 in988.1 mb - 0.00 in0.0 mm 0.24 in6.1 mm
09:30 AM 51.8°F11.0°C 48.4°F9.1°C 88% 4.6 mph SE7.4 kmh SE 8.1 mph13.0 kmh 29.18 in988.1 mb - 0.00 in0.0 mm 0.24 in6.1 mm
09:20 AM 51.7°F10.9°C 48.3°F9.1°C 88% 8.1 mph SSE13.0 kmh SSE 12.7 mph20.4 kmh 29.18 in988.1 mb - 0.00 in0.0 mm 0.24 in6.1 mm
09:10 AM 51.6°F10.9°C 48.5°F9.2°C 89% 8.1 mph SE13.0 kmh SE 9.2 mph14.8 kmh 29.18 in988.1 mb - 0.01 in0.3 mm 0.24 in6.1 mm
09:00 AM 51.2°F10.7°C 48.1°F8.9°C 89% 6.9 mph SE11.1 kmh SE 9.2 mph14.8 kmh 29.18 in988.1 mb - 0.01 in0.3 mm 0.24 in6.1 mm
08:50 AM 51.0°F10.6°C 47.6°F8.7°C 88% 6.9 mph SE11.1 kmh SE 8.1 mph13.0 kmh 29.19 in988.5 mb - 0.02 in0.5 mm 0.24 in6.1 mm
08:40 AM 51.4°F10.8°C 48.2°F9.0°C 89% 8.1 mph SSE13.0 kmh SSE 11.5 mph18.5 kmh 29.19 in988.5 mb - 0.02 in0.5 mm 0.24 in6.1 mm
08:30 AM 53.0°F11.7°C 49.8°F9.9°C 89% 12.7 mph SSE20.4 kmh SSE 15.0 mph24.1 kmh 29.18 in988.1 mb - 0.02 in0.5 mm 0.24 in6.1 mm
08:20 AM 53.3°F11.8°C 50.1°F10.1°C 89% 10.4 mph SE16.7 kmh SE 13.8 mph22.2 kmh 29.18 in988.1 mb - 0.02 in0.5 mm 0.24 in6.1 mm
08:10 AM 53.5°F11.9°C 50.3°F10.2°C 89% 11.5 mph SE18.5 kmh SE 16.1 mph25.9 kmh 29.18 in988.1 mb - 0.02 in0.5 mm 0.23 in5.8 mm
08:00 AM 53.7°F12.1°C 50.5°F10.3°C 89% 10.4 mph ESE16.7 kmh ESE 12.7 mph20.4 kmh 29.18 in988.1 mb - 0.02 in0.5 mm 0.23 in5.8 mm
07:50 AM 53.7°F12.1°C 50.5°F10.3°C 89% 8.1 mph ESE13.0 kmh ESE 11.5 mph18.5 kmh 29.18 in988.1 mb - 0.01 in0.3 mm 0.22 in5.6 mm
07:40 AM 53.7°F12.1°C 50.5°F10.3°C 89% 9.2 mph ESE14.8 kmh ESE 11.5 mph18.5 kmh 29.19 in988.5 mb - 0.03 in0.8 mm 0.22 in5.6 mm
07:30 AM 53.7°F12.1°C 50.5°F10.3°C 89% 8.1 mph ESE13.0 kmh ESE 11.5 mph18.5 kmh 29.19 in988.5 mb - 0.04 in1.0 mm 0.22 in5.6 mm
07:20 AM 53.7°F12.1°C 50.6°F10.3°C 89% 9.2 mph ESE14.8 kmh ESE 11.5 mph18.5 kmh 29.19 in988.5 mb - 0.04 in1.0 mm 0.22 in5.6 mm
07:10 AM 53.9°F12.2°C 50.7°F10.4°C 89% 10.4 mph ESE16.7 kmh ESE 13.8 mph22.2 kmh 29.20 in988.8 mb - 0.04 in1.0 mm 0.21 in5.3 mm
07:00 AM 53.9°F12.2°C 50.7°F10.4°C 89% 10.4 mph ESE16.7 kmh ESE 15.0 mph24.1 kmh 29.20 in988.8 mb - 0.04 in1.0 mm 0.21 in5.3 mm
06:50 AM 54.0°F12.2°C 50.8°F10.4°C 89% 10.4 mph E16.7 kmh E 12.7 mph20.4 kmh 29.20 in988.8 mb - 0.06 in1.5 mm 0.21 in5.3 mm
06:40 AM 54.1°F12.3°C 50.9°F10.5°C 89% 12.7 mph SE20.4 kmh SE 17.3 mph27.8 kmh 29.20 in988.8 mb - 0.07 in1.8 mm 0.20 in5.1 mm
06:30 AM 54.0°F12.2°C 50.9°F10.5°C 89% 8.1 mph ESE13.0 kmh ESE 13.8 mph22.2 kmh 29.20 in988.8 mb - 0.06 in1.5 mm 0.18 in4.6 mm
06:20 AM 53.7°F12.1°C 50.5°F10.3°C 89% 6.9 mph ESE11.1 kmh ESE 15.0 mph24.1 kmh 29.21 in989.2 mb - 0.07 in1.8 mm 0.18 in4.6 mm
06:10 AM 53.5°F11.9°C 50.1°F10.1°C 88% 8.1 mph E13.0 kmh E 12.7 mph20.4 kmh 29.21 in989.2 mb - 0.08 in2.0 mm 0.17 in4.3 mm
06:00 AM 53.4°F11.9°C 49.9°F9.9°C 88% 5.8 mph ESE9.3 kmh ESE 16.1 mph25.9 kmh 29.21 in989.2 mb - 0.10 in2.5 mm 0.17 in4.3 mm
05:50 AM 53.3°F11.8°C 49.8°F9.9°C 88% 6.9 mph ESE11.1 kmh ESE 11.5 mph18.5 kmh 29.21 in989.2 mb - 0.10 in2.5 mm 0.15 in3.8 mm
05:40 AM 53.3°F11.8°C 49.8°F9.9°C 88% 6.9 mph ESE11.1 kmh ESE 9.2 mph14.8 kmh 29.21 in989.2 mb - 0.09 in2.3 mm 0.13 in3.3 mm
05:30 AM 53.3°F11.8°C 49.8°F9.9°C 88% 9.2 mph ESE14.8 kmh ESE 13.8 mph22.2 kmh 29.21 in989.2 mb - 0.08 in2.0 mm 0.12 in3.0 mm
05:20 AM 53.3°F11.8°C 49.8°F9.9°C 88% 8.1 mph E13.0 kmh E 12.7 mph20.4 kmh 29.21 in989.2 mb - 0.07 in1.8 mm 0.11 in2.8 mm
05:10 AM 53.4°F11.9°C 49.9°F9.9°C 88% 9.2 mph E14.8 kmh E 13.8 mph22.2 kmh 29.21 in989.2 mb - 0.06 in1.5 mm 0.09 in2.3 mm
05:00 AM 53.5°F11.9°C 50.1°F10.1°C 88% 5.8 mph E9.3 kmh E 11.5 mph18.5 kmh 29.22 in989.5 mb - 0.04 in1.0 mm 0.07 in1.8 mm
04:50 AM 53.7°F12.1°C 50.2°F10.1°C 88% 6.9 mph ESE11.1 kmh ESE 11.5 mph18.5 kmh 29.22 in989.5 mb - 0.02 in0.5 mm 0.05 in1.3 mm
04:40 AM 53.7°F12.1°C 50.2°F10.1°C 88% 5.8 mph E9.3 kmh E 9.2 mph14.8 kmh 29.22 in989.5 mb - 0.01 in0.3 mm 0.04 in1.0 mm
04:30 AM 53.7°F12.1°C 49.9°F9.9°C 87% 5.8 mph E9.3 kmh E 9.2 mph14.8 kmh 29.22 in989.5 mb - 0.01 in0.3 mm 0.04 in1.0 mm
04:20 AM 53.8°F12.1°C 50.0°F10.0°C 87% 4.6 mph E7.4 kmh E 6.9 mph11.1 kmh 29.22 in989.5 mb - 0.01 in0.3 mm 0.04 in1.0 mm
04:10 AM 53.6°F12.0°C 49.8°F9.9°C 87% 5.8 mph ESE9.3 kmh ESE 8.1 mph13.0 kmh 29.23 in989.8 mb - 0.00 in0.0 mm 0.03 in0.8 mm
04:00 AM 53.6°F12.0°C 49.8°F9.9°C 87% 5.8 mph ESE9.3 kmh ESE 8.1 mph13.0 kmh 29.23 in989.8 mb - 0.00 in0.0 mm 0.03 in0.8 mm
03:50 AM 53.5°F11.9°C 50.0°F10.0°C 88% 5.8 mph ESE9.3 kmh ESE 8.1 mph13.0 kmh 29.23 in989.8 mb - 0.00 in0.0 mm 0.03 in0.8 mm
03:40 AM 53.4°F11.9°C 50.0°F10.0°C 88% 5.8 mph ESE9.3 kmh ESE 8.1 mph13.0 kmh 29.24 in990.2 mb - 0.00 in0.0 mm 0.03 in0.8 mm
03:30 AM 53.4°F11.9°C 49.9°F9.9°C 88% 3.5 mph E5.6 kmh E 6.9 mph11.1 kmh 29.23 in989.8 mb - 0.00 in0.0 mm 0.03 in0.8 mm
03:20 AM 53.4°F11.9°C 49.6°F9.8°C 87% 4.6 mph ESE7.4 kmh ESE 8.1 mph13.0 kmh 29.24 in990.2 mb - 0.00 in0.0 mm 0.03 in0.8 mm
03:10 AM 53.4°F11.9°C 49.6°F9.8°C 87% 4.6 mph ESE7.4 kmh ESE 8.1 mph13.0 kmh 29.24 in990.2 mb - 0.00 in0.0 mm 0.03 in0.8 mm
03:00 AM 53.4°F11.9°C 49.6°F9.8°C 87% 4.6 mph E7.4 kmh E 6.9 mph11.1 kmh 29.25 in990.5 mb - 0.00 in0.0 mm 0.03 in0.8 mm
02:50 AM 53.5°F11.9°C 49.7°F9.8°C 87% 6.9 mph ESE11.1 kmh ESE 11.5 mph18.5 kmh 29.25 in990.5 mb - 0.00 in0.0 mm 0.03 in0.8 mm
02:40 AM 53.4°F11.9°C 49.6°F9.8°C 87% 5.8 mph ESE9.3 kmh ESE 6.9 mph11.1 kmh 29.25 in990.5 mb - 0.00 in0.0 mm 0.03 in0.8 mm
02:30 AM 53.4°F11.9°C 49.6°F9.8°C 87% 5.8 mph ESE9.3 kmh ESE 9.2 mph14.8 kmh 29.25 in990.5 mb - 0.00 in0.0 mm 0.03 in0.8 mm
02:20 AM 53.5°F11.9°C 49.7°F9.8°C 87% 3.5 mph E5.6 kmh E 8.1 mph13.0 kmh 29.25 in990.5 mb - 0.00 in0.0 mm 0.03 in0.8 mm
02:10 AM 53.5°F11.9°C 49.7°F9.8°C 87% 3.5 mph ESE5.6 kmh ESE 5.8 mph9.3 kmh 29.25 in990.5 mb - 0.00 in0.0 mm 0.03 in0.8 mm
02:00 AM 53.3°F11.8°C 49.5°F9.7°C 87% 4.6 mph E7.4 kmh E 6.9 mph11.1 kmh 29.26 in990.9 mb - 0.00 in0.0 mm 0.03 in0.8 mm
01:50 AM 53.2°F11.8°C 49.4°F9.7°C 87% 4.6 mph E7.4 kmh E 6.9 mph11.1 kmh 29.26 in990.9 mb - 0.00 in0.0 mm 0.03 in0.8 mm
01:40 AM 53.2°F11.8°C 49.4°F9.7°C 87% 5.8 mph ESE9.3 kmh ESE 8.1 mph13.0 kmh 29.27 in991.2 mb - 0.01 in0.3 mm 0.03 in0.8 mm
01:30 AM 53.2°F11.8°C 49.4°F9.7°C 87% 4.6 mph E7.4 kmh E 5.8 mph9.3 kmh 29.27 in991.2 mb - 0.01 in0.3 mm 0.03 in0.8 mm
01:20 AM 53.2°F11.8°C 49.4°F9.7°C 87% 2.3 mph E3.7 kmh E 5.8 mph9.3 kmh 29.27 in991.2 mb - 0.01 in0.3 mm 0.03 in0.8 mm
01:10 AM 53.2°F11.8°C 49.4°F9.7°C 87% 3.5 mph E5.6 kmh E 5.8 mph9.3 kmh 29.28 in991.5 mb - 0.01 in0.3 mm 0.03 in0.8 mm
01:00 AM 53.2°F11.8°C 49.4°F9.7°C 87% 3.5 mph ESE5.6 kmh ESE 5.8 mph9.3 kmh 29.28 in991.5 mb - 0.01 in0.3 mm 0.03 in0.8 mm
12:50 AM 53.4°F11.9°C 49.6°F9.8°C 87% 5.8 mph ESE9.3 kmh ESE 8.1 mph13.0 kmh 29.29 in991.9 mb - 0.02 in0.5 mm 0.03 in0.8 mm
12:40 AM 53.4°F11.9°C 49.6°F9.8°C 87% 4.6 mph ESE7.4 kmh ESE 9.2 mph14.8 kmh 29.29 in991.9 mb - 0.02 in0.5 mm 0.03 in0.8 mm
12:30 AM 53.5°F11.9°C 49.7°F9.8°C 87% 4.6 mph ESE7.4 kmh ESE 6.9 mph11.1 kmh 29.29 in991.9 mb - 0.01 in0.3 mm 0.02 in0.5 mm
12:20 AM 53.7°F12.1°C 49.9°F9.9°C 87% 4.6 mph SE7.4 kmh SE 8.1 mph13.0 kmh 29.30 in992.2 mb - 0.02 in0.5 mm 0.02 in0.5 mm
12:10 AM 53.8°F12.1°C 49.7°F9.8°C 86% 3.5 mph ESE5.6 kmh ESE 4.6 mph7.4 kmh 29.30 in992.2 mb - 0.02 in0.5 mm 0.02 in0.5 mm
12:00 AM 53.9°F12.2°C 50.1°F10.1°C 87% 4.6 mph ESE7.4 kmh ESE 6.9 mph11.1 kmh 29.30 in992.2 mb - 0.02 in0.5 mm 0.02 in0.5 mm